createdAt,value
2023-02-13T05:15:44.726Z,18.20
2023-02-13T05:18:13.178Z,21.40
2023-02-13T05:20:42.080Z,24.60
2023-02-13T05:23:23.366Z,28.10
2023-02-13T05:25:51.571Z,18.50
2023-02-13T05:28:38.614Z,19.10
2023-02-13T05:31:07.194Z,18.50
2023-02-13T05:33:35.763Z,15.60
2023-02-13T05:36:04.594Z,19.30
2023-02-13T05:38:35.822Z,16.00
2023-02-13T05:41:05.109Z,21.30
2023-02-13T05:43:33.929Z,22.90
2023-02-13T05:46:05.906Z,20.00
2023-02-13T05:48:34.361Z,20.80
2023-02-13T05:51:02.798Z,19.60
2023-02-13T05:53:31.148Z,19.90
2023-02-13T05:55:59.384Z,19.00
2023-02-13T05:58:30.571Z,19.40
2023-02-13T06:01:01.168Z,21.20
2023-02-13T06:03:30.689Z,24.90
2023-02-13T06:06:01.387Z,23.10
2023-02-13T06:08:30.065Z,24.50
2023-02-13T06:11:06.380Z,21.30
2023-02-13T06:13:34.979Z,23.00
2023-02-13T06:16:12.439Z,21.50
2023-02-13T06:18:40.816Z,18.80
2023-02-13T06:21:09.411Z,22.70
2023-02-13T06:23:38.776Z,22.00
2023-02-13T06:26:08.103Z,24.10
2023-02-13T06:28:36.564Z,18.70
2023-02-13T06:31:05.341Z,18.60
2023-02-13T06:33:33.936Z,25.90
2023-02-13T06:36:03.354Z,25.80
2023-02-13T06:38:34.982Z,25.30
2023-02-13T06:41:04.404Z,25.40
2023-02-13T06:43:33.074Z,24.80
2023-02-13T06:46:05.541Z,30.00
2023-02-13T06:48:37.922Z,27.30
2023-02-13T06:51:06.464Z,26.00
2023-02-13T06:53:34.790Z,30.10
2023-02-13T06:56:05.245Z,22.70
2023-02-13T06:58:36.761Z,33.80
2023-02-13T07:01:05.361Z,35.00
2023-02-13T07:03:34.131Z,31.00
2023-02-13T07:06:03.223Z,41.80
2023-02-13T07:08:32.035Z,35.40
2023-02-13T07:11:00.484Z,30.10
2023-02-13T07:13:29.710Z,34.70
2023-02-13T07:16:01.334Z,38.50
2023-02-13T07:18:30.220Z,38.00
2023-02-13T07:20:59.116Z,28.00
2023-02-13T07:23:27.507Z,46.70
2023-02-13T07:25:59.448Z,35.00
2023-02-13T07:28:29.603Z,29.50
2023-02-13T07:30:58.512Z,36.10
2023-02-13T07:33:29.231Z,32.30
2023-02-13T07:36:01.321Z,39.90
2023-02-13T07:38:34.379Z,32.60
2023-02-13T07:41:03.365Z,35.10
2023-02-13T07:43:33.906Z,40.20
2023-02-13T07:46:02.994Z,35.60
2023-02-13T07:48:35.997Z,39.10
2023-02-13T07:51:05.581Z,35.90
2023-02-13T07:53:33.947Z,32.30
2023-02-13T07:56:09.914Z,26.40
2023-02-13T07:58:40.449Z,35.60
2023-02-13T08:01:09.658Z,28.20
2023-02-13T08:03:38.097Z,31.50
2023-02-13T08:06:07.334Z,23.70
2023-02-13T08:08:35.994Z,29.30
2023-02-13T08:11:25.272Z,37.00
2023-02-13T08:13:53.834Z,22.70
2023-02-13T08:16:26.376Z,31.20
2023-02-13T08:18:56.112Z,25.60
2023-02-13T08:21:24.587Z,25.50
2023-02-13T08:23:55.237Z,25.50
2023-02-13T08:26:24.058Z,28.30
2023-02-13T08:28:52.714Z,24.60
2023-02-13T08:31:21.273Z,21.50
2023-02-13T08:33:54.286Z,29.40
2023-02-13T08:36:25.725Z,28.30
2023-02-13T08:38:54.412Z,28.00
2023-02-13T08:41:23.424Z,24.30
2023-02-13T08:43:52.465Z,26.90
2023-02-13T08:46:21.257Z,30.40
2023-02-13T08:48:52.001Z,19.70
2023-02-13T08:51:20.600Z,20.80
2023-02-13T08:53:52.206Z,30.70
2023-02-13T08:56:22.182Z,25.90
2023-02-13T08:58:54.127Z,28.70
2023-02-13T09:01:27.324Z,23.30
2023-02-13T09:03:56.072Z,31.40
2023-02-13T09:06:26.526Z,29.40
2023-02-13T09:08:58.094Z,29.50
2023-02-13T09:11:26.549Z,28.80
2023-02-13T09:13:54.822Z,25.80
2023-02-13T09:16:23.388Z,28.50
2023-02-13T09:18:52.038Z,24.70
2023-02-13T09:21:26.793Z,33.20
2023-02-13T09:23:55.443Z,35.80
2023-02-13T09:26:24.032Z,29.60
2023-02-13T09:28:54.595Z,31.10
2023-02-13T09:31:29.193Z,31.30
2023-02-13T09:34:01.133Z,32.50
2023-02-13T09:36:31.372Z,31.80
2023-02-13T09:39:01.072Z,27.40
2023-02-13T09:41:40.780Z,31.50
2023-02-13T09:44:34.226Z,27.70
2023-02-13T09:47:08.279Z,31.00
2023-02-13T09:49:37.950Z,33.60
2023-02-13T09:52:07.939Z,32.10
2023-02-13T09:54:37.022Z,31.60
2023-02-13T09:57:14.386Z,29.90
2023-02-13T09:59:53.836Z,33.30
2023-02-13T10:02:45.183Z,25.90
2023-02-13T10:05:37.852Z,33.70
2023-02-13T10:08:19.177Z,32.70
2023-02-13T10:11:04.368Z,32.20
2023-02-13T10:13:56.303Z,32.00
2023-02-13T10:16:39.907Z,40.10
2023-02-13T10:19:22.015Z,43.20
2023-02-13T10:22:14.751Z,34.20
2023-02-13T10:24:55.157Z,33.40
2023-02-13T10:27:25.550Z,54.00
2023-02-13T10:30:05.246Z,53.50
2023-02-13T10:32:40.962Z,46.30
2023-02-13T10:35:24.727Z,37.90
2023-02-13T10:37:55.421Z,53.80
2023-02-13T10:40:38.036Z,46.90
2023-02-13T10:43:10.188Z,62.00
2023-02-13T10:46:14.883Z,46.70
2023-02-13T10:48:43.019Z,44.80
2023-02-13T10:52:08.299Z,34.80
2023-02-13T11:02:18.343Z,43.50
2023-02-13T11:04:56.176Z,43.90
2023-02-13T11:07:25.050Z,47.00
2023-02-13T11:09:55.893Z,55.80
2023-02-13T11:12:31.683Z,48.70
2023-02-13T11:15:12.252Z,34.10
2023-02-13T11:17:44.556Z,40.10
2023-02-13T11:20:47.995Z,33.90
2023-02-13T11:23:28.612Z,45.60
2023-02-13T11:28:34.709Z,41.90
2023-02-13T11:31:33.529Z,32.20
2023-02-13T11:34:24.270Z,38.00
2023-02-13T11:36:53.654Z,36.70
2023-02-13T11:39:22.688Z,31.90
2023-02-13T11:41:51.014Z,40.80
2023-02-13T11:44:20.410Z,32.90
2023-02-13T11:46:50.282Z,42.60
2023-02-13T11:49:25.755Z,44.90
2023-02-13T11:51:57.698Z,32.20
2023-02-13T11:54:33.709Z,42.90
2023-02-13T11:57:30.031Z,31.40
2023-02-13T11:59:58.870Z,35.00
2023-02-13T12:02:29.272Z,39.40
2023-02-13T12:05:18.114Z,37.00
2023-02-13T12:07:46.771Z,33.20
2023-02-13T12:10:15.371Z,42.40
2023-02-13T12:13:00.128Z,40.00
2023-02-13T12:15:31.197Z,39.00
2023-02-13T12:18:09.301Z,43.10
2023-02-13T12:21:07.400Z,43.00
2023-02-13T12:24:19.357Z,45.50
2023-02-13T12:26:53.825Z,39.50
2023-02-13T12:30:00.341Z,33.90
2023-02-13T12:32:45.283Z,46.50
2023-02-13T12:35:43.527Z,64.70
2023-02-13T12:38:50.491Z,52.60
2023-02-13T12:41:22.858Z,40.30
2023-02-13T12:44:04.101Z,49.90
2023-02-13T12:46:45.249Z,37.00
2023-02-13T12:49:42.438Z,34.90
2023-02-13T12:52:36.004Z,45.20
2023-02-13T12:55:11.015Z,36.90
2023-02-13T12:58:01.472Z,41.70
2023-02-13T13:00:39.554Z,43.10
2023-02-13T13:04:02.504Z,44.70
2023-02-13T13:06:52.590Z,35.30
2023-02-13T13:09:35.176Z,62.90
2023-02-13T13:12:24.967Z,34.10
2023-02-13T13:15:51.610Z,35.80
2023-02-13T13:18:19.977Z,43.80
2023-02-13T13:20:57.065Z,37.50
2023-02-13T13:24:15.082Z,33.70
2023-02-13T13:26:49.840Z,26.30
2023-02-13T13:29:26.581Z,31.90
2023-02-13T13:32:06.964Z,36.20
2023-02-13T13:34:36.024Z,34.80
2023-02-13T13:37:27.725Z,36.10
2023-02-13T13:40:24.837Z,49.50
2023-02-13T13:42:57.135Z,35.70
2023-02-13T13:45:51.553Z,34.00
2023-02-13T13:48:20.222Z,36.80
2023-02-13T13:50:48.511Z,48.20
2023-02-13T13:53:20.988Z,59.10
2023-02-13T13:55:52.880Z,47.90
2023-02-13T13:58:27.406Z,33.60
2023-02-13T14:01:36.192Z,42.10
2023-02-13T14:04:23.654Z,38.40
2023-02-13T14:06:51.878Z,35.90
2023-02-13T14:09:40.638Z,26.20
2023-02-13T14:12:36.755Z,38.00
2023-02-13T14:15:38.630Z,29.30
2023-02-13T14:18:12.128Z,30.30
2023-02-13T14:20:42.599Z,28.40
2023-02-13T14:23:26.654Z,29.40
2023-02-13T14:26:16.846Z,32.90
2023-02-13T14:28:55.832Z,28.30
2023-02-13T14:31:30.875Z,26.00
2023-02-13T14:34:06.368Z,32.50
2023-02-13T14:36:43.304Z,35.30
2023-02-13T14:39:25.835Z,36.10
2023-02-13T14:41:54.326Z,32.60
2023-02-13T14:44:26.772Z,27.10
2023-02-13T14:46:54.917Z,28.40
2023-02-13T14:49:28.727Z,36.30
2023-02-13T14:51:59.260Z,28.70
2023-02-13T14:54:50.141Z,23.40
2023-02-13T14:57:44.788Z,27.30
2023-02-13T15:00:18.906Z,37.90
2023-02-13T15:02:49.931Z,24.60
2023-02-13T15:05:35.806Z,35.20
2023-02-13T22:13:57.586Z,17.00
2023-02-13T22:16:26.594Z,18.30
2023-02-13T22:18:55.125Z,18.80
2023-02-13T22:21:25.042Z,19.90
2023-02-13T22:23:57.260Z,16.80
2023-02-13T22:26:31.255Z,23.30
2023-02-13T22:29:01.233Z,15.90
2023-02-13T22:31:30.179Z,15.60
2023-02-13T22:34:04.281Z,15.20
2023-02-13T22:36:34.375Z,15.70
2023-02-13T22:39:03.458Z,15.90
2023-02-13T22:41:32.244Z,13.90
2023-02-13T22:44:00.549Z,17.50
2023-02-13T22:46:30.948Z,15.60
2023-02-13T22:49:02.207Z,17.80
2023-02-13T22:51:33.364Z,24.90
2023-02-13T22:54:02.515Z,14.20
2023-02-13T22:56:33.520Z,23.60
2023-02-13T22:59:02.248Z,21.40
2023-02-13T23:01:31.553Z,22.50
2023-02-13T23:04:00.271Z,18.10
2023-02-13T23:06:29.844Z,18.70
2023-02-13T23:08:58.045Z,15.20
2023-02-13T23:11:46.133Z,13.70
2023-02-13T23:14:14.856Z,14.50
2023-02-13T23:17:02.125Z,14.50
2023-02-13T23:19:30.732Z,13.30
2023-02-13T23:21:59.549Z,33.20
2023-02-13T23:24:29.254Z,13.40
2023-02-13T23:26:58.318Z,12.50
2023-02-13T23:29:29.381Z,14.70
2023-02-13T23:31:57.570Z,12.50
2023-02-13T23:34:25.814Z,11.10
2023-02-13T23:36:54.248Z,14.50
2023-02-13T23:39:24.378Z,13.00
2023-02-13T23:41:52.510Z,14.90
2023-02-13T23:44:20.658Z,11.80
2023-02-13T23:46:48.779Z,13.30
2023-02-13T23:49:17.013Z,14.50
2023-02-13T23:51:45.675Z,11.40
2023-02-13T23:54:22.955Z,13.60
2023-02-13T23:56:52.046Z,13.10
2023-02-13T23:59:23.438Z,15.40
